Capitol Logistics 450


KMIA
Miami International Airport
Miami, Florida, US
KRFD
Chicago/Rockford International Airport
Rockford, Illinois, US

Route Details

Aircraft Information
Primary: Boeing 757-200SF
Backup: Boeing 737-800BCF
Route Data
Distance: 1139nm
Sched. Duration: 3h 00m
Avg. Duration: 3h 00m (+0m)
Times Flown: 15
Recm'd Route: WINCO2 WINCO J73 LAL CTY J91 ATL VARNM GLAZR Q118 HEVAN Q118 MZZ JOT
Planned Altitude: 35,000ft
Origin Wx: KMIA 221653Z 08014KT 10SM BKN017 BKN060 BKN130 28/24 A2996 RMK AO2 PK WND 09026/1627 SLP145 T02830239
Dest. Wx: KRFD 221654Z 09007KT 1SM R01/4500VP6000FT -DZ BR OVC003 11/09 A3001 RMK AO2 SLP166 P0000 T01060089
Notes:

Financial History
Total Freight: 1,112,496lbs
Average Load: 74,166lbs/flt
Fuel Used: 430,513lbs
Avg. Fuel Used: 28,701lbs/flt
Fuel Expense: $530,765
Avg. Fuel Expense: $35,384
Avg. Fuel Cost: $1.23/lbs
Total Gross Income: $1,512,908
Pilot Pay: $2,095
Total Expenses: $164,174
Total Revenue: $809,458
Average Revenue: $100,860.50